Flight Track Log - Related Links

Times and Time Zones

All times are in EST time to prevent confusion due to time zone crossing. See the N5605P flight status page for this flight to view local times or setup timezone preferences in your user account.

Time Position Orientation Groundspeed Altitude Reporting Facility
EST Latitude Longitude Course Direction KTS MPH feet Rate Location/Type
Sun 01:42:23 PM 37.4272 -80.1033 53° Northeast 161 185 5,000  Level Washington Center
Sun 01:43:00 PM 37.3353 -80.1582 53° Northeast  Level FlightAware Approximate
Sun 01:43:23 PM 37.4578 -80.0631 46° Northeast 155 178 4,900  Level Washington Center
Sun 01:44:00 PM 37.3595 -80.1180 53° Northeast  Level FlightAware Approximate
Sun 01:44:24 PM 37.4844 -80.0228 50° Northeast 149 171 5,000  Level Washington Center
Sun 01:45:00 PM 37.3837 -80.0776 53° Northeast  Level FlightAware Approximate
Sun 01:45:22 PM 37.5175 -79.9750 49° Northeast 154 177 4,900  Level Washington Center
Sun 01:46:00 PM 37.4078 -80.0373 53° Northeast  Level FlightAware Approximate
Sun 01:46:22 PM 37.5458 -79.9400 44° Northeast 154 177 5,000  Level Washington Center
Sun 01:47:22 PM 37.5764 -79.9050 42° Northeast 149 171 5,000  Level Washington Center
Sun 01:48:23 PM 37.6008 -79.8592 56° Northeast 149 171 5,000 50 Level Washington Center
Sun 01:49:23 PM 37.6272 -79.8267 44° Northeast 149 171 5,100 -248 Climbing Washington Center
Sun 01:50:24 PM 37.6536 -79.7889 49° Northeast 149 171 4,500 -303 Descending Washington Center
Sun 01:51:22 PM 37.6819 -79.7511 47° Northeast 149 171 4,500  Level Washington Center
Sun 01:52:23 PM 37.6864 -79.7433 54° Northeast 149 171 4,500 197 Level Washington Center
Sun 01:53:24 PM 37.7392 -79.6594 51° Northeast 124 143 4,900 403 Climbing Washington Center
Sun 01:54:22 PM 37.7656 -79.6242 47° Northeast 135 155 5,300 353 Climbing Washington Center
Sun 01:55:23 PM 37.7897 -79.5886 49° Northeast 135 155 5,600 496 Climbing Washington Center
Sun 01:56:23 PM 37.8142 -79.5453 54° Northeast 130 150 6,300 446 Climbing Washington Center
Sun 01:57:24 PM 37.8361 -79.5069 54° Northeast 130 150 6,500 252 Climbing Washington Center
Sun 01:58:22 PM 37.8603 -79.4714 49° Northeast 130 150 6,800 353 Climbing Washington Center
Sun 01:59:23 PM 37.8864 -79.4333 49° Northeast 130 150 7,200 397 Climbing Washington Center
Sun 02:00:23 PM 37.9106 -79.3950 51° Northeast 135 155 7,600 252 Climbing Washington Center
Sun 02:01:22 PM 37.9369 -79.3569 49° Northeast 141 162 7,700 250 Climbing Washington Center
Sun 02:02:23 PM 37.9611 -79.3214 49° Northeast 141 162 8,100 344 Climbing Washington Center
Sun 02:03:24 PM 37.9869 -79.2908 43° Northeast 129 148 8,400 397 Climbing Washington Center
Sun 02:04:24 PM 38.0108 -79.2578 47° Northeast 129 148 8,900 508 Climbing Washington Center
Sun 02:05:22 PM 38.0347 -79.2272 45° Northeast 129 148 9,400 353 Climbing Washington Center
Sun 02:06:23 PM 38.0631 -79.1919 44° Northeast 129 148 9,600 98 Climbing Washington Center
Sun 02:07:24 PM 38.0911 -79.1536 47° Northeast 129 148 9,600 -59 Level Washington Center
Sun 02:09:47 PM 38.1667 -79.0667 42° Northeast 153 176 9,400 89 Descending Potomac TRACON
Sun 02:10:47 PM 38.1833 -79.0167 67° East 140 161 9,900 650 Climbing Potomac TRACON
Sun 02:11:47 PM 38.2167 -78.9833 38° Northeast 126 145 10,700 650 Climbing Potomac TRACON
Sun 02:12:47 PM 38.2333 -78.9667 38° Northeast 127 146 11,200 442 Climbing Potomac TRACON
Sun 02:13:22 PM 38.2494 -78.9469 44° Northeast 124 143 11,400 189 Climbing Washington Center
Sun 02:14:22 PM 38.2733 -78.9136 48° Northeast 119 137 11,500 50 Climbing Washington Center
Sun 02:15:23 PM 38.3056 -78.8753 43° Northeast 125 144 11,500  Level Washington Center
Sun 02:16:24 PM 38.3319 -78.8317 52° Northeast 130 150 11,500 49 Level Washington Center
Sun 02:17:25 PM 38.3600 -78.7956 45° Northeast 137 158 11,600 151 Climbing Washington Center
Sun 02:18:23 PM 38.3858 -78.7597 47° Northeast 137 158 11,800 50 Climbing Washington Center
Sun 02:19:24 PM 38.4161 -78.7214 45° Northeast 137 158 11,700 -151 Descending Washington Center
Sun 02:20:22 PM 38.4442 -78.6828 47° Northeast 137 158 11,500 -153 Descending Washington Center
Sun 02:21:22 PM 38.4744 -78.6442 45° Northeast 137 158 11,400 -99 Descending Washington Center
Sun 02:22:23 PM 38.5025 -78.6081 45° Northeast 142 163 11,300  Descending Washington Center
Sun 02:23:23 PM 38.5306 -78.5694 47° Northeast 142 163 11,400 99 Climbing Washington Center
Sun 02:24:24 PM 38.5564 -78.5361 45° Northeast 142 163 11,500 149 Climbing Washington Center
Sun 02:25:24 PM 38.5844 -78.4972 47° Northeast 142 163 11,700 102 Climbing Washington Center
Sun 02:26:22 PM 38.6144 -78.4586 45° Northeast 142 163 11,700 -50 Level Washington Center
Sun 02:27:23 PM 38.6447 -78.4147 49° Northeast 142 163 11,600 -148 Descending Washington Center
Sun 02:28:24 PM 38.6769 -78.3733 45° Northeast 147 169 11,400 -50 Descending Washington Center
Sun 02:29:22 PM 38.7069 -78.3344 45° Northeast 147 169 11,500 101 Climbing Washington Center
Sun 02:30:23 PM 38.7350 -78.2956 47° Northeast 147 169 11,600 99 Climbing Washington Center
Sun 02:31:23 PM 38.7631 -78.2567 47° Northeast 147 169 11,700 149 Climbing Washington Center
Sun 02:32:24 PM 38.7931 -78.2206 43° Northeast 147 169 11,900 202 Climbing Washington Center
Sun 02:33:22 PM 38.8208 -78.1842 46° Northeast 147 169 12,100 153 Climbing Washington Center
Sun 02:34:22 PM 38.8489 -78.1425 49° Northeast 147 169 12,200 132 Climbing Washington Center
Sun 02:36:24 PM 38.9000 -78.0667 49° Northeast 156 180 12,500 99 Climbing Potomac TRACON
Sun 02:37:24 PM 38.9333 -78.0167 49° Northeast 159 183 12,500 50 Level Potomac TRACON
Sun 02:38:24 PM 38.9667 -77.9833 38° Northeast 157 181 12,600 50 Climbing Potomac TRACON
Sun 02:39:24 PM 39.0000 -77.9333 49° Northeast 158 182 12,600  Level Potomac TRACON
Sun 02:40:24 PM 39.0333 -77.9000 38° Northeast 157 181 12,600  Level Potomac TRACON
Sun 02:41:18 PM 39.0500 -77.8667 57° Northeast 158 182 12,600  Level Potomac TRACON
Sun 02:42:24 PM 39.0833 -77.8167 49° Northeast 159 183 12,600  Level Potomac TRACON
Sun 02:43:24 PM 39.1167 -77.7833 38° Northeast 158 182 12,600  Level Potomac TRACON
Sun 02:44:19 PM 39.1500 -77.7333 49° Northeast 161 185 12,600  Level Potomac TRACON
Sun 02:45:24 PM 39.1833 -77.6833 49° Northeast 170 196 12,600 48 Level Potomac TRACON
Sun 02:46:25 PM 39.2000 -77.6333 67° East 174 200 12,700  Climbing Potomac TRACON
Sun 02:47:25 PM 39.2167 -77.5833 67° East 178 205 12,600 -100 Descending Potomac TRACON
Sun 02:48:25 PM 39.2333 -77.5167 72° East 174 200 12,500 -200 Descending Potomac TRACON
Sun 02:49:25 PM 39.2667 -77.4667 49° Northeast 182 209 12,200 -300 Descending Potomac TRACON
Sun 02:50:25 PM 39.2833 -77.4000 72° East 178 205 11,900 -350 Descending Potomac TRACON
Sun 02:51:25 PM 39.3000 -77.3500 67° East 181 208 11,500 -400 Descending Potomac TRACON
Sun 02:52:25 PM 39.3333 -77.3000 49° Northeast 183 211 11,100 -368 Descending Potomac TRACON
Sun 02:53:19 PM 39.3500 -77.2500 67° East 180 207 10,800 -365 Descending Potomac TRACON
Sun 02:54:20 PM 39.3667 -77.1833 72° East 184 212 10,400 -347 Descending Potomac TRACON
Sun 02:55:20 PM 39.4000 -77.1333 49° Northeast 184 212 10,100 -300 Descending Potomac TRACON
Sun 02:56:20 PM 39.4333 -77.0833 49° Northeast 171 197 9,800 -200 Descending Potomac TRACON
Sun 02:57:20 PM 39.4667 -77.0667 21° North 166 191 9,700 -150 Descending Potomac TRACON
Sun 02:58:20 PM 39.5000 -77.0000 57° Northeast 188 216 9,500 -105 Descending Potomac TRACON
Sun 02:59:14 PM 39.5167 -76.9500 67° East 181 208 9,500 -52 Level Potomac TRACON
Sun 03:00:15 PM 39.5333 -76.8833 72° East 177 204 9,400 -50 Descending Potomac TRACON
Sun 03:01:15 PM 39.5500 -76.8333 67° East 175 201 9,400 33 Level Potomac TRACON
Sun 03:03:16 PM 39.5986 -76.7203 61° Northeast 194 223 9,500 -99 Climbing New York Center
Sun 03:04:16 PM 39.6200 -76.6653 63° Northeast 176 203 9,100 -450 Descending New York Center
Sun 03:05:16 PM 39.6419 -76.6053 65° Northeast 170 196 8,600 -400 Descending New York Center
Sun 03:06:16 PM 39.6636 -76.5450 65° Northeast 175 201 8,300 -400 Descending New York Center
Sun 03:07:16 PM 39.6853 -76.4872 64° Northeast 175 201 7,800 -350 Descending New York Center
Sun 03:08:16 PM 39.7069 -76.4269 65° Northeast 175 201 7,600 -200 Descending New York Center
Sun 03:09:16 PM 39.7283 -76.3694 64° Northeast 175 201 7,400 -300 Descending New York Center
Sun 03:10:16 PM 39.7497 -76.3144 63° Northeast 175 201 7,000 -400 Descending New York Center
Sun 03:11:16 PM 39.7692 -76.2539 67° East 170 196 6,600 -450 Descending New York Center
Sun 03:12:16 PM 39.7906 -76.1986 63° Northeast 175 201 6,100 -450 Descending New York Center
Sun 03:13:16 PM 39.8078 -76.1433 68° East 170 196 5,700 -250 Descending New York Center
Sun 03:14:16 PM 39.8311 -76.0883 61° Northeast 160 184 5,600 -50 Descending New York Center
Sun 03:15:16 PM 39.8458 -76.0353 70° East 155 178 5,600  Level New York Center
Sun 03:16:16 PM 39.8644 -75.9906 62° Northeast 155 178 5,600  Level New York Center
Sun 03:17:16 PM 39.8814 -75.9378 67° East 155 178 5,600 -50 Level New York Center
Sun 03:18:16 PM 39.9028 -75.8825 63° Northeast 150 173 5,500 -50 Descending New York Center
Sun 03:19:16 PM 39.9194 -75.8297 68° East 150 173 5,500 50 Level New York Center
Sun 03:20:16 PM 39.9383 -75.7797 64° Northeast 150 173 5,600 50 Climbing New York Center
Sun 03:21:16 PM 39.9553 -75.7239 68° East 150 173 5,600  Level New York Center
Sun 03:22:16 PM 39.9764 -75.6686 63° Northeast 150 173 5,600  Level New York Center
Sun 03:23:16 PM 39.9953 -75.6156 65° Northeast 155 178 5,600  Level New York Center
Sun 03:24:16 PM 40.0142 -75.5600 66° East 155 178 5,600 -99 Level New York Center
Sun 03:26:17 PM 40.0500 -75.4500 67° East 175 201 5,300 -280 Descending Philadelphia TRACON
Sun 03:27:29 PM 40.0833 -75.3833 57° Northeast 174 200 4,700 -500 Descending Philadelphia TRACON
Sun 03:28:17 PM 40.1000 -75.3333 66° East 169 194 4,300 -444 Descending Philadelphia TRACON
Sun 03:29:17 PM 40.1167 -75.2833 66° East 160 184 3,900 -316 Descending Philadelphia TRACON
Sun 03:30:11 PM 40.1333 -75.2333 66° East 154 177 3,700 -211 Descending Philadelphia TRACON
Sun 03:31:11 PM 40.1500 -75.1833 66° East 149 171 3,500 -190 Descending Philadelphia TRACON
Sun 03:32:17 PM 40.1667 -75.1333 66° East 141 162 3,300 -142 Descending Philadelphia TRACON
Sun 03:33:18 PM 40.1833 -75.0833 66° East 140 161 3,200 -98 Descending Philadelphia TRACON
Sun 03:35:00 PM 40.2027 -74.9893 72° East  Level FlightAware Approximate
Sun 03:42:00 PM 40.2667 -74.8000 62° Northeast  Level FlightAware Approximate
Sun 03:43:00 PM 40.2767 -74.8135 62° Northeast  Level Estimated
Sun 03:44:00 PM 40.2767 -74.8135 62° Northeast  Level Estimated

Login

Don't have an account? Register now (free) for customized features, flight alerts, and more!